Time;durP1;ratioP1;P1;durP2;ratioP2;P2;SDS_P1;SDS_P2;PMS_P1;PMS_P2;Temp;Humidity;BMP_temperature;BMP_pressure;BME280_temperature;BME280_humidity;BME280_pressure;Samples;Min_cycle;Max_cycle;Signal;HPM_P1;HPM_P2
2022/03/06 00:01:19;;;;;;;23.13;13.00;;;;;;;;;;5079686;28;20397;-78
2022/03/06 00:03:45;;;;;;;23.93;13.43;;;;;;;;;;5077883;28;20893;-78
2022/03/06 00:06:13;;;;;;;19.80;10.97;;;;;;;;;;5078856;28;20401;-80
2022/03/06 00:08:39;;;;;;;21.43;12.40;;;;;;;;;;5080943;28;20487;-78
2022/03/06 00:11:05;;;;;;;20.47;12.07;;;;;;;;;;5080532;28;20500;-78
2022/03/06 00:13:33;;;;;;;21.37;13.10;;;;;;;;;;5082683;28;20408;-78
2022/03/06 00:15:59;;;;;;;28.00;13.37;;;;;;;;;;5079295;28;20772;-78
2022/03/06 00:18:25;;;;;;;22.47;13.77;;;;;;;;;;5079340;28;20448;-78
2022/03/06 00:20:53;;;;;;;21.50;12.30;;;;;;;;;;5079237;28;20490;-78
2022/03/06 00:23:19;;;;;;;23.27;13.67;;;;;;;;;;5078219;28;20441;-78
2022/03/06 00:25:46;;;;;;;22.70;13.13;;;;;;;;;;5077383;28;20412;-78
2022/03/06 00:28:12;;;;;;;20.67;13.07;;;;;;;;;;5078871;28;20417;-78
2022/03/06 00:30:38;;;;;;;24.87;12.90;;;;;;;;;;5077910;28;20424;-78
2022/03/06 00:33:07;;;;;;;20.60;14.53;;;;;;;;;;5078280;28;20440;-78
2022/03/06 00:35:34;;;;;;;20.20;12.40;;;;;;;;;;5078033;28;20417;-78
2022/03/06 00:38:01;;;;;;;24.00;14.37;;;;;;;;;;5077578;28;20479;-78
2022/03/06 00:40:27;;;;;;;26.60;12.77;;;;;;;;;;5078426;28;20448;-78
2022/03/06 00:42:53;;;;;;;22.93;13.50;;;;;;;;;;5078478;28;20745;-78
2022/03/06 00:45:19;;;;;;;20.03;13.20;;;;;;;;;;5078444;28;20426;-78
2022/03/06 00:47:45;;;;;;;24.97;12.97;;;;;;;;;;5077197;28;20436;-78
2022/03/06 00:50:11;;;;;;;24.30;12.20;;;;;;;;;;5078228;28;20430;-78
2022/03/06 00:52:41;;;;;;;26.03;14.60;;;;;;;;;;5078082;28;20966;-78
2022/03/06 00:55:08;;;;;;;23.13;14.13;;;;;;;;;;5078045;28;20490;-78
2022/03/06 00:57:34;;;;;;;27.20;14.90;;;;;;;;;;5076434;28;20437;-79
2022/03/06 01:00:01;;;;;;;21.37;12.90;;;;;;;;;;5075814;28;20504;-78
2022/03/06 01:02:27;;;;;;;24.40;15.27;;;;;;;;;;5077756;28;20401;-78
2022/03/06 01:04:53;;;;;;;24.30;15.27;;;;;;;;;;5076825;28;20487;-78
2022/03/06 01:07:19;;;;;;;21.37;12.63;;;;;;;;;;5077595;28;20424;-78
2022/03/06 01:09:46;;;;;;;24.03;14.60;;;;;;;;;;5076885;28;20432;-78
2022/03/06 01:12:12;;;;;;;22.70;13.57;;;;;;;;;;5077928;28;20457;-78
2022/03/06 01:14:38;;;;;;;27.67;14.23;;;;;;;;;;5077898;28;20401;-78
2022/03/06 01:17:04;;;;;;;25.67;13.70;;;;;;;;;;5077898;28;20523;-78
2022/03/06 01:19:30;;;;;;;22.73;13.43;;;;;;;;;;5077588;28;20444;-78
2022/03/06 01:21:56;;;;;;;24.03;15.20;;;;;;;;;;5078235;28;20492;-79
2022/03/06 01:24:22;;;;;;;23.73;13.60;;;;;;;;;;5077966;28;20397;-78
2022/03/06 01:26:49;;;;;;;25.40;15.77;;;;;;;;;;5077628;28;20494;-78
2022/03/06 01:29:15;;;;;;;26.47;14.53;;;;;;;;;;5076064;28;20727;-78
2022/03/06 01:31:41;;;;;;;22.10;13.50;;;;;;;;;;5076217;28;20432;-78
2022/03/06 01:34:07;;;;;;;26.83;16.43;;;;;;;;;;5076409;28;20792;-78
2022/03/06 01:39:14;;;;;;;22.13;14.17;;;;;;;;;;5030445;28;20885;-74
2022/03/06 01:41:40;;;;;;;21.70;12.60;;;;;;;;;;5033990;28;20776;-74
2022/03/06 01:44:11;;;;;;;28.07;15.97;;;;;;;;;;5033816;28;20922;-74
2022/03/06 01:46:37;;;;;;;30.70;15.30;;;;;;;;;;5033856;28;20386;-74
2022/03/06 01:49:03;;;;;;;24.10;14.43;;;;;;;;;;5033915;28;20414;-74
2022/03/06 01:51:29;;;;;;;27.00;15.67;;;;;;;;;;5034165;28;20493;-74
2022/03/06 01:53:55;;;;;;;24.57;15.40;;;;;;;;;;5033699;28;20407;-74
2022/03/06 01:56:21;;;;;;;28.17;16.10;;;;;;;;;;5033735;28;20408;-74
2022/03/06 01:58:48;;;;;;;33.70;16.40;;;;;;;;;;5033558;28;20476;-74
2022/03/06 02:01:14;;;;;;;24.67;14.90;;;;;;;;;;5033680;28;21008;-75
2022/03/06 02:03:40;;;;;;;25.63;14.27;;;;;;;;;;5034038;28;20418;-74
2022/03/06 02:06:10;;;;;;;29.43;15.37;;;;;;;;;;5032190;28;20771;-74
2022/03/06 02:08:36;;;;;;;27.30;15.97;;;;;;;;;;5033458;28;20879;-74
2022/03/06 02:11:03;;;;;;;26.50;14.70;;;;;;;;;;5033331;28;20420;-74
2022/03/06 02:13:29;;;;;;;27.23;14.90;;;;;;;;;;5033328;28;20468;-74
2022/03/06 02:15:55;;;;;;;25.03;15.17;;;;;;;;;;5033333;28;20411;-74
2022/03/06 02:18:21;;;;;;;23.90;14.90;;;;;;;;;;5033200;28;20442;-74
2022/03/06 02:20:48;;;;;;;30.23;16.30;;;;;;;;;;5033057;28;20496;-74
2022/03/06 02:23:15;;;;;;;26.03;14.80;;;;;;;;;;5033100;28;20409;-74
2022/03/06 02:25:41;;;;;;;29.20;15.23;;;;;;;;;;5033200;28;20437;-74
2022/03/06 02:28:08;;;;;;;28.47;15.93;;;;;;;;;;5033027;28;20418;-74
2022/03/06 02:30:39;;;;;;;33.90;16.80;;;;;;;;;;5033319;28;20489;-75
2022/03/06 02:33:07;;;;;;;30.10;15.33;;;;;;;;;;5033759;28;20391;-74
2022/03/06 02:35:34;;;;;;;25.43;15.57;;;;;;;;;;5033288;28;20907;-74
2022/03/06 02:38:00;;;;;;;28.67;15.20;;;;;;;;;;5032953;28;20446;-74
2022/03/06 02:40:26;;;;;;;28.83;16.80;;;;;;;;;;5031653;28;20541;-74
2022/03/06 02:42:53;;;;;;;25.10;15.40;;;;;;;;;;5032954;28;20411;-74
2022/03/06 02:45:20;;;;;;;30.10;17.17;;;;;;;;;;5032919;28;20430;-74
2022/03/06 02:47:47;;;;;;;28.07;14.97;;;;;;;;;;5032928;28;20425;-74
2022/03/06 02:50:18;;;;;;;26.40;15.50;;;;;;;;;;5026442;28;20427;-74
2022/03/06 02:52:44;;;;;;;29.83;15.80;;;;;;;;;;5032992;28;20426;-74
2022/03/06 02:55:12;;;;;;;26.10;14.90;;;;;;;;;;5031503;28;20444;-74
2022/03/06 02:57:38;;;;;;;27.97;15.40;;;;;;;;;;5032829;28;20422;-75
2022/03/06 03:00:06;;;;;;;30.90;15.53;;;;;;;;;;5033180;28;20781;-75
2022/03/06 03:02:32;;;;;;;25.03;15.07;;;;;;;;;;5032894;28;20402;-75
2022/03/06 03:04:58;;;;;;;26.57;16.10;;;;;;;;;;5033194;28;20846;-74
2022/03/06 03:07:24;;;;;;;29.60;16.33;;;;;;;;;;5032779;28;20445;-74
2022/03/06 03:09:50;;;;;;;27.50;15.13;;;;;;;;;;5032920;28;20548;-75
2022/03/06 03:12:16;;;;;;;25.00;14.13;;;;;;;;;;5032754;28;20406;-75
2022/03/06 03:14:42;;;;;;;25.20;16.03;;;;;;;;;;5032879;28;20776;-75
2022/03/06 03:17:08;;;;;;;27.63;15.23;;;;;;;;;;5032622;28;20476;-74
2022/03/06 03:19:34;;;;;;;30.30;16.87;;;;;;;;;;5032569;28;20457;-75
2022/03/06 03:22:01;;;;;;;26.07;15.50;;;;;;;;;;5031759;28;20429;-74
2022/03/06 03:24:27;;;;;;;28.40;16.30;;;;;;;;;;5036640;28;20402;-75
2022/03/06 03:26:53;;;;;;;27.70;15.17;;;;;;;;;;5036359;28;20433;-75
2022/03/06 03:29:19;;;;;;;24.03;15.33;;;;;;;;;;5036292;28;20402;-74
2022/03/06 03:31:46;;;;;;;28.90;16.27;;;;;;;;;;5036286;28;20410;-75
2022/03/06 03:34:12;;;;;;;25.83;15.50;;;;;;;;;;5036335;28;20419;-75
2022/03/06 03:36:39;;;;;;;39.90;15.10;;;;;;;;;;5036184;28;20406;-74
2022/03/06 03:39:05;;;;;;;25.03;16.10;;;;;;;;;;5036049;28;20440;-75
2022/03/06 03:41:32;;;;;;;29.20;16.07;;;;;;;;;;5034907;28;20410;-74
2022/03/06 03:43:58;;;;;;;27.97;15.87;;;;;;;;;;5036225;28;20913;-74
2022/03/06 03:46:24;;;;;;;28.17;14.20;;;;;;;;;;5035902;28;20894;-74
2022/03/06 03:48:50;;;;;;;39.63;16.87;;;;;;;;;;5034652;28;20806;-75
2022/03/06 03:51:16;;;;;;;32.07;17.00;;;;;;;;;;5034675;28;20501;-74
2022/03/06 03:53:42;;;;;;;27.43;15.37;;;;;;;;;;5035923;28;20410;-75
2022/03/06 03:56:08;;;;;;;29.77;16.50;;;;;;;;;;5036037;28;20414;-75
2022/03/06 03:58:34;;;;;;;29.77;16.50;;;;;;;;;;5035783;28;20505;-74
2022/03/06 04:01:01;;;;;;;30.40;16.77;;;;;;;;;;5034292;28;20499;-74
2022/03/06 04:03:27;;;;;;;30.70;15.30;;;;;;;;;;5035620;28;20966;-74
2022/03/06 04:05:53;;;;;;;24.60;14.60;;;;;;;;;;5035695;28;20453;-74
2022/03/06 04:08:20;;;;;;;29.67;17.00;;;;;;;;;;5035583;28;20458;-74
2022/03/06 04:10:46;;;;;;;24.33;15.10;;;;;;;;;;5035661;28;20785;-75
2022/03/06 04:13:12;;;;;;;31.40;15.93;;;;;;;;;;5035722;28;20394;-74
2022/03/06 04:15:38;;;;;;;30.30;18.37;;;;;;;;;;5034254;28;20414;-75
2022/03/06 04:18:04;;;;;;;26.00;15.67;;;;;;;;;;5035425;28;20488;-75
2022/03/06 04:20:31;;;;;;;29.13;16.70;;;;;;;;;;5030521;28;20813;-75
2022/03/06 04:22:57;;;;;;;27.07;16.13;;;;;;;;;;5024023;28;20412;-74
2022/03/06 04:25:24;;;;;;;29.67;17.30;;;;;;;;;;5015372;28;20406;-74
2022/03/06 04:27:50;;;;;;;32.67;18.10;;;;;;;;;;5023144;28;20475;-74
2022/03/06 04:30:16;;;;;;;27.87;16.30;;;;;;;;;;5015253;28;20454;-74
2022/03/06 04:32:42;;;;;;;27.23;15.07;;;;;;;;;;5015578;28;20482;-75
2022/03/06 04:35:09;;;;;;;29.40;15.70;;;;;;;;;;5015668;28;20826;-74
2022/03/06 04:37:35;;;;;;;29.67;17.13;;;;;;;;;;5014961;28;20490;-74
2022/03/06 04:40:01;;;;;;;28.53;15.50;;;;;;;;;;5015159;28;20451;-74
2022/03/06 04:42:27;;;;;;;29.17;15.47;;;;;;;;;;5015399;28;20410;-74
2022/03/06 04:44:53;;;;;;;31.23;15.47;;;;;;;;;;5015232;28;20400;-74
2022/03/06 04:47:19;;;;;;;32.87;15.83;;;;;;;;;;5015070;28;20419;-74
2022/03/06 04:49:45;;;;;;;28.40;15.90;;;;;;;;;;5015119;28;20404;-74
2022/03/06 04:52:11;;;;;;;31.77;16.40;;;;;;;;;;5015255;28;20406;-75
2022/03/06 04:54:37;;;;;;;27.67;16.30;;;;;;;;;;5015256;28;20411;-75
2022/03/06 04:57:04;;;;;;;28.53;15.73;;;;;;;;;;5014866;28;20590;-75
2022/03/06 04:59:30;;;;;;;25.40;14.13;;;;;;;;;;5015091;28;20868;-74
2022/03/06 05:01:56;;;;;;;26.57;16.17;;;;;;;;;;5015028;28;20403;-74
2022/03/06 05:04:22;;;;;;;30.13;16.90;;;;;;;;;;5015160;28;20778;-74
2022/03/06 05:06:48;;;;;;;28.70;15.40;;;;;;;;;;5014059;28;20407;-74
2022/03/06 05:09:14;;;;;;;28.07;16.40;;;;;;;;;;5019121;28;20418;-79
2022/03/06 05:11:41;;;;;;;29.00;15.97;;;;;;;;;;5014853;28;20403;-74
2022/03/06 05:14:07;;;;;;;31.20;16.77;;;;;;;;;;5026198;28;20467;-74
2022/03/06 05:16:33;;;;;;;27.80;14.73;;;;;;;;;;5034776;28;20485;-74
2022/03/06 05:19:00;;;;;;;26.97;17.13;;;;;;;;;;5034257;28;20472;-75
2022/03/06 05:21:26;;;;;;;28.40;15.40;;;;;;;;;;5033156;28;20426;-75
2022/03/06 05:23:52;;;;;;;24.80;16.10;;;;;;;;;;5034412;28;20407;-74
2022/03/06 05:26:18;;;;;;;26.23;16.30;;;;;;;;;;5034363;28;20434;-74
2022/03/06 05:28:44;;;;;;;33.40;16.60;;;;;;;;;;5034316;28;20996;-75
2022/03/06 05:31:10;;;;;;;27.53;15.40;;;;;;;;;;5034361;28;20398;-75
2022/03/06 05:33:36;;;;;;;24.43;15.60;;;;;;;;;;5034215;28;20403;-74
2022/03/06 05:36:03;;;;;;;26.03;16.60;;;;;;;;;;5034357;28;20410;-75
2022/03/06 05:38:29;;;;;;;28.97;15.30;;;;;;;;;;5034012;28;20796;-74
2022/03/06 05:40:55;;;;;;;30.53;16.80;;;;;;;;;;5034015;28;20934;-75
2022/03/06 05:43:21;;;;;;;27.17;14.70;;;;;;;;;;5034022;28;20477;-75
2022/03/06 05:45:52;;;;;;;26.87;14.63;;;;;;;;;;5033362;28;20421;-75
2022/03/06 05:48:19;;;;;;;26.47;15.80;;;;;;;;;;5034013;28;20974;-74
2022/03/06 05:50:45;;;;;;;23.43;13.30;;;;;;;;;;5033988;28;20498;-74
2022/03/06 05:53:11;;;;;;;26.93;15.47;;;;;;;;;;5034192;28;20409;-75
2022/03/06 05:55:37;;;;;;;25.60;15.00;;;;;;;;;;5033708;28;20411;-75
2022/03/06 05:58:03;;;;;;;25.10;14.43;;;;;;;;;;5033550;28;20430;-75
2022/03/06 06:00:29;;;;;;;26.60;14.77;;;;;;;;;;5033831;28;20450;-75
2022/03/06 06:02:55;;;;;;;27.03;14.50;;;;;;;;;;5033850;28;20398;-75
2022/03/06 06:05:22;;;;;;;30.17;16.03;;;;;;;;;;5033222;28;20465;-75
2022/03/06 06:07:48;;;;;;;32.60;16.17;;;;;;;;;;5048649;28;20422;-74
2022/03/06 06:10:15;;;;;;;29.40;16.10;;;;;;;;;;5048474;28;20454;-74
2022/03/06 06:12:41;;;;;;;30.27;16.00;;;;;;;;;;5040094;28;20417;-74
2022/03/06 06:15:08;;;;;;;23.67;14.23;;;;;;;;;;5053757;28;20405;-74
2022/03/06 06:17:34;;;;;;;23.03;14.63;;;;;;;;;;5038429;28;20439;-74
2022/03/06 06:20:00;;;;;;;25.33;14.00;;;;;;;;;;5033541;28;20830;-74
2022/03/06 06:22:28;;;;;;;27.37;14.90;;;;;;;;;;5033467;28;20407;-74
2022/03/06 06:24:54;;;;;;;24.45;14.60;;;;;;;;;;5033114;28;20410;-74
2022/03/06 06:27:21;;;;;;;29.53;15.87;;;;;;;;;;5051800;28;20449;-74
2022/03/06 06:29:47;;;;;;;28.03;15.87;;;;;;;;;;5048353;28;20464;-74
2022/03/06 06:32:13;;;;;;;23.53;13.40;;;;;;;;;;5037461;28;20411;-74
2022/03/06 06:34:39;;;;;;;24.10;14.00;;;;;;;;;;5053428;28;20414;-74
2022/03/06 06:37:05;;;;;;;26.70;14.87;;;;;;;;;;5043989;28;20434;-74
2022/03/06 06:39:32;;;;;;;27.10;14.70;;;;;;;;;;5033271;28;20434;-74
2022/03/06 06:41:59;;;;;;;25.13;14.27;;;;;;;;;;5033135;28;20401;-75
2022/03/06 06:44:26;;;;;;;27.47;15.13;;;;;;;;;;5033198;28;20918;-74
2022/03/06 06:46:52;;;;;;;27.50;14.43;;;;;;;;;;5032913;28;20421;-74
2022/03/06 06:49:18;;;;;;;24.73;14.43;;;;;;;;;;5041014;28;20411;-75
2022/03/06 06:51:44;;;;;;;22.90;13.50;;;;;;;;;;5053084;28;20409;-75
2022/03/06 06:54:10;;;;;;;23.53;13.67;;;;;;;;;;5047345;28;20406;-75
2022/03/06 06:56:36;;;;;;;34.70;15.10;;;;;;;;;;5035673;28;20809;-76
2022/03/06 06:59:02;;;;;;;26.30;15.00;;;;;;;;;;5035667;28;20427;-76
2022/03/06 07:01:28;;;;;;;25.87;14.00;;;;;;;;;;5036011;28;20540;-76
2022/03/06 07:03:54;;;;;;;26.70;15.70;;;;;;;;;;5036312;28;20405;-75
2022/03/06 07:06:20;;;;;;;26.80;15.43;;;;;;;;;;5035585;28;20179;-75
2022/03/06 07:08:46;;;;;;;22.87;14.70;;;;;;;;;;5035645;28;20466;-75
2022/03/06 07:11:12;;;;;;;23.37;14.27;;;;;;;;;;5037098;28;20407;-75
2022/03/06 07:13:38;;;;;;;23.70;13.73;;;;;;;;;;5036909;28;20407;-75
2022/03/06 07:16:05;;;;;;;21.30;13.30;;;;;;;;;;5037234;28;20403;-75
2022/03/06 07:18:31;;;;;;;30.10;15.53;;;;;;;;;;5036944;28;20422;-75
2022/03/06 07:20:57;;;;;;;25.07;13.57;;;;;;;;;;5037038;28;20457;-75
2022/03/06 07:23:23;;;;;;;22.80;13.37;;;;;;;;;;5036982;28;20924;-76
2022/03/06 07:25:49;;;;;;;25.83;13.73;;;;;;;;;;5036786;28;20394;-75
2022/03/06 07:28:15;;;;;;;27.00;15.30;;;;;;;;;;5036626;28;20486;-75
2022/03/06 07:30:41;;;;;;;22.27;13.77;;;;;;;;;;5036704;28;20906;-76
2022/03/06 07:33:07;;;;;;;22.33;13.40;;;;;;;;;;5036850;28;20468;-74
2022/03/06 07:35:33;;;;;;;21.57;11.77;;;;;;;;;;5036489;28;20895;-75
2022/03/06 07:37:59;;;;;;;22.40;12.27;;;;;;;;;;5060014;22;20614;-76
2022/03/06 07:40:25;;;;;;;19.67;11.60;;;;;;;;;;5035388;28;20453;-77
2022/03/06 07:42:51;;;;;;;23.57;12.63;;;;;;;;;;5034967;28;20415;-76
2022/03/06 07:45:18;;;;;;;24.17;13.47;;;;;;;;;;5036396;28;20467;-75
2022/03/06 07:47:45;;;;;;;25.40;13.23;;;;;;;;;;5039070;28;20949;-76
2022/03/06 07:50:12;;;;;;;24.93;13.20;;;;;;;;;;5054665;28;20418;-76
2022/03/06 07:52:38;;;;;;;21.60;11.57;;;;;;;;;;5056048;28;20488;-76
2022/03/06 07:55:05;;;;;;;20.07;11.93;;;;;;;;;;5056116;28;20527;-76
2022/03/06 07:57:31;;;;;;;20.70;12.90;;;;;;;;;;5057079;28;20505;-77
2022/03/06 07:59:57;;;;;;;21.93;12.63;;;;;;;;;;5057776;28;20476;-76
2022/03/06 08:02:23;;;;;;;22.63;12.60;;;;;;;;;;5057212;28;20456;-78
2022/03/06 08:04:49;;;;;;;22.30;12.67;;;;;;;;;;5055811;28;20397;-77
2022/03/06 08:07:15;;;;;;;23.67;12.57;;;;;;;;;;5055667;28;20396;-77
2022/03/06 08:09:41;;;;;;;22.20;12.23;;;;;;;;;;5055098;28;20971;-77
2022/03/06 08:12:08;;;;;;;23.17;11.47;;;;;;;;;;5055478;28;20979;-77
2022/03/06 08:14:34;;;;;;;21.33;12.07;;;;;;;;;;5055558;28;20401;-77
2022/03/06 08:17:00;;;;;;;18.40;11.60;;;;;;;;;;5055864;28;20406;-77
2022/03/06 08:19:26;;;;;;;20.37;12.70;;;;;;;;;;5055237;28;20969;-77
2022/03/06 08:21:52;;;;;;;18.00;12.20;;;;;;;;;;5054122;28;20777;-77
2022/03/06 08:24:18;;;;;;;20.87;12.73;;;;;;;;;;5055918;28;20922;-77
2022/03/06 08:26:44;;;;;;;22.20;13.10;;;;;;;;;;5055917;28;20543;-77
2022/03/06 08:29:11;;;;;;;18.20;12.10;;;;;;;;;;5055403;28;20464;-77
2022/03/06 08:31:37;;;;;;;21.10;12.50;;;;;;;;;;5054944;28;20416;-77
2022/03/06 08:34:03;;;;;;;22.43;12.33;;;;;;;;;;5053860;28;20498;-77
2022/03/06 08:36:31;;;;;;;22.40;12.70;;;;;;;;;;5055181;28;20949;-77
2022/03/06 08:38:57;;;;;;;18.70;11.50;;;;;;;;;;5055469;28;20460;-76
2022/03/06 08:41:23;;;;;;;22.43;12.30;;;;;;;;;;5053845;28;20967;-77
2022/03/06 08:43:49;;;;;;;19.00;11.70;;;;;;;;;;5054966;28;20394;-76
2022/03/06 08:46:15;;;;;;;22.50;12.30;;;;;;;;;;5055061;28;20413;-76
2022/03/06 08:48:41;;;;;;;18.63;10.67;;;;;;;;;;5054969;28;20445;-76
2022/03/06 08:51:07;;;;;;;21.87;12.43;;;;;;;;;;5054975;28;20420;-76
2022/03/06 08:53:33;;;;;;;18.07;11.37;;;;;;;;;;5055090;28;20406;-77
2022/03/06 08:56:00;;;;;;;17.40;11.27;;;;;;;;;;5054979;28;20405;-77
2022/03/06 08:58:26;;;;;;;19.27;11.57;;;;;;;;;;5054526;28;20425;-77
2022/03/06 09:00:52;;;;;;;17.50;10.50;;;;;;;;;;5054756;28;20452;-77
2022/03/06 09:03:18;;;;;;;17.87;11.83;;;;;;;;;;5055052;28;20401;-77
2022/03/06 09:05:44;;;;;;;17.07;11.23;;;;;;;;;;5055696;28;20405;-77
2022/03/06 09:08:11;;;;;;;20.20;12.03;;;;;;;;;;5054803;28;20422;-77
2022/03/06 09:10:38;;;;;;;17.07;10.20;;;;;;;;;;5055346;28;20408;-77
2022/03/06 09:13:04;;;;;;;22.30;13.67;;;;;;;;;;5054890;28;20416;-77
2022/03/06 09:15:31;;;;;;;16.43;10.97;;;;;;;;;;5054141;28;20402;-77
2022/03/06 09:17:57;;;;;;;16.37;10.00;;;;;;;;;;5054534;28;20513;-78
2022/03/06 09:20:23;;;;;;;22.07;10.90;;;;;;;;;;5052021;28;20485;-77
2022/03/06 09:22:50;;;;;;;19.17;9.87;;;;;;;;;;5054530;28;20898;-77
2022/03/06 09:25:16;;;;;;;16.33;10.13;;;;;;;;;;5054477;28;20408;-77
2022/03/06 09:27:42;;;;;;;21.23;11.80;;;;;;;;;;5054346;28;20397;-76
2022/03/06 09:30:08;;;;;;;19.23;10.10;;;;;;;;;;5054261;28;20398;-77
2022/03/06 09:32:35;;;;;;;18.07;11.83;;;;;;;;;;5054066;28;20398;-77
2022/03/06 09:35:01;;;;;;;13.10;10.13;;;;;;;;;;5054242;28;20409;-77
2022/03/06 09:37:27;;;;;;;16.50;10.17;;;;;;;;;;5054279;28;20406;-76
2022/03/06 09:39:53;;;;;;;17.23;11.13;;;;;;;;;;5054438;28;20445;-77
2022/03/06 09:42:20;;;;;;;16.30;10.77;;;;;;;;;;5054879;28;20413;-77
2022/03/06 09:44:46;;;;;;;16.30;10.43;;;;;;;;;;5053784;28;20406;-77
2022/03/06 09:47:13;;;;;;;14.87;10.30;;;;;;;;;;5053919;28;20762;-77
2022/03/06 09:49:40;;;;;;;14.27;9.33;;;;;;;;;;5052564;28;21009;-77
2022/03/06 09:52:06;;;;;;;15.43;10.63;;;;;;;;;;5053880;28;20463;-77
2022/03/06 09:54:32;;;;;;;14.10;10.13;;;;;;;;;;5054018;28;20428;-76
2022/03/06 09:57:00;;;;;;;15.80;8.43;;;;;;;;;;5054065;28;20435;-76
2022/03/06 09:59:26;;;;;;;13.90;9.47;;;;;;;;;;5054327;28;20807;-77
2022/03/06 10:01:52;;;;;;;16.43;10.60;;;;;;;;;;5055646;28;20413;-78
2022/03/06 10:04:23;;;;;;;15.20;8.87;;;;;;;;;;5059384;28;20579;-77
2022/03/06 10:07:05;;;;;;;15.80;9.20;;;;;;;;;;5053581;28;20405;-77
2022/03/06 10:09:31;;;;;;;14.33;9.20;;;;;;;;;;5053802;28;20422;-77
2022/03/06 10:11:58;;;;;;;12.63;9.23;;;;;;;;;;5054031;28;20435;-77
2022/03/06 10:14:42;;;;;;;16.77;10.20;;;;;;;;;;5053728;28;20484;-77
2022/03/06 10:17:29;;;;;;;14.83;9.70;;;;;;;;;;5053818;28;20409;-77
2022/03/06 10:20:00;;;;;;;18.43;10.60;;;;;;;;;;5069158;28;20852;-77
2022/03/06 10:22:33;;;;;;;16.23;9.10;;;;;;;;;;5053614;28;20440;-77
2022/03/06 10:25:06;;;;;;;16.63;10.10;;;;;;;;;;5053526;28;20447;-77
2022/03/06 10:27:56;;;;;;;20.00;11.20;;;;;;;;;;5055691;28;20460;-77
2022/03/06 10:30:22;;;;;;;18.37;9.33;;;;;;;;;;5059400;28;20524;-77
2022/03/06 10:32:48;;;;;;;18.00;9.80;;;;;;;;;;5053374;28;20401;-77
2022/03/06 10:35:14;;;;;;;19.27;10.30;;;;;;;;;;5053267;28;20413;-77
2022/03/06 10:37:40;;;;;;;13.43;9.33;;;;;;;;;;5053559;28;20418;-77
2022/03/06 10:40:07;;;;;;;16.03;9.97;;;;;;;;;;5053698;28;21028;-77
2022/03/06 10:42:34;;;;;;;17.97;9.40;;;;;;;;;;5053424;28;20921;-77
2022/03/06 10:45:00;;;;;;;13.47;9.57;;;;;;;;;;5053201;28;20765;-77
2022/03/06 10:47:26;;;;;;;17.00;10.20;;;;;;;;;;5052853;28;20412;-77
2022/03/06 10:50:02;;;;;;;14.90;9.50;;;;;;;;;;5053524;28;20406;-77
2022/03/06 10:52:28;;;;;;;15.47;9.10;;;;;;;;;;5053237;28;20500;-76
2022/03/06 10:54:55;;;;;;;16.77;10.00;;;;;;;;;;5053097;28;20440;-77
2022/03/06 10:57:21;;;;;;;15.13;9.50;;;;;;;;;;5053179;28;20453;-77
2022/03/06 10:59:50;;;;;;;18.93;10.90;;;;;;;;;;5060279;28;20468;-77
2022/03/06 11:02:17;;;;;;;16.87;10.03;;;;;;;;;;5055774;28;20402;-77
2022/03/06 11:04:46;;;;;;;16.73;9.70;;;;;;;;;;5051782;28;20510;-77
2022/03/06 11:07:12;;;;;;;15.30;9.20;;;;;;;;;;5053347;28;20906;-77
2022/03/06 11:09:39;;;;;;;15.27;9.13;;;;;;;;;;5052684;28;20417;-77
2022/03/06 11:12:05;;;;;;;14.10;10.17;;;;;;;;;;5052883;28;20925;-77
2022/03/06 11:14:32;;;;;;;18.50;10.80;;;;;;;;;;5052994;28;20455;-77
2022/03/06 11:16:59;;;;;;;18.30;9.60;;;;;;;;;;5051591;28;20410;-77
2022/03/06 11:19:26;;;;;;;20.73;10.23;;;;;;;;;;5052737;28;20428;-77
2022/03/06 11:21:58;;;;;;;17.57;10.10;;;;;;;;;;5053040;28;20474;-77
2022/03/06 11:24:28;;;;;;;15.60;10.03;;;;;;;;;;5052431;28;20393;-78
2022/03/06 11:27:13;;;;;;;13.00;8.53;;;;;;;;;;5055282;28;20496;-77
2022/03/06 11:29:57;;;;;;;13.90;9.20;;;;;;;;;;5055391;28;20837;-78
2022/03/06 11:32:25;;;;;;;13.47;9.77;;;;;;;;;;5054597;28;20477;-77
2022/03/06 11:34:53;;;;;;;14.00;10.00;;;;;;;;;;5052945;28;20437;-78
2022/03/06 11:37:19;;;;;;;14.90;10.50;;;;;;;;;;5053649;28;20393;-77
2022/03/06 11:39:49;;;;;;;16.00;10.50;;;;;;;;;;5052867;28;20457;-77
2022/03/06 11:42:34;;;;;;;15.30;10.87;;;;;;;;;;5052583;28;20397;-77
2022/03/06 11:45:00;;;;;;;15.20;9.70;;;;;;;;;;5056041;28;20397;-77
2022/03/06 11:47:39;;;;;;;13.73;9.60;;;;;;;;;;5056520;28;20400;-77
2022/03/06 11:50:08;;;;;;;15.70;10.27;;;;;;;;;;5057076;28;20398;-77
2022/03/06 11:52:41;;;;;;;14.13;10.63;;;;;;;;;;5057453;28;20734;-77
2022/03/06 11:55:26;;;;;;;16.73;10.27;;;;;;;;;;5056330;28;20398;-77
2022/03/06 11:57:52;;;;;;;16.00;10.07;;;;;;;;;;5056421;28;20479;-76
2022/03/06 12:00:23;;;;;;;15.13;9.03;;;;;;;;;;5057386;28;20537;-78
2022/03/06 12:02:59;;;;;;;15.23;9.47;;;;;;;;;;5057897;28;20920;-77
2022/03/06 12:05:44;;;;;;;13.33;9.47;;;;;;;;;;5058528;28;20378;-78
2022/03/06 12:08:11;;;;;;;14.13;9.33;;;;;;;;;;5058251;28;20417;-78
2022/03/06 12:10:38;;;;;;;14.77;9.40;;;;;;;;;;5058295;28;20468;-78
2022/03/06 12:13:04;;;;;;;16.87;9.27;;;;;;;;;;5058534;28;20404;-77
2022/03/06 12:15:30;;;;;;;18.13;9.73;;;;;;;;;;5058370;28;20402;-77
2022/03/06 12:18:03;;;;;;;12.83;8.97;;;;;;;;;;5056329;28;20425;-77
2022/03/06 12:20:31;;;;;;;14.60;8.97;;;;;;;;;;5055905;28;20968;-77
2022/03/06 12:23:02;;;;;;;13.20;9.20;;;;;;;;;;5059966;28;20409;-78
2022/03/06 12:25:33;;;;;;;13.37;9.53;;;;;;;;;;5057782;28;20374;-78
2022/03/06 12:28:06;;;;;;;15.03;8.97;;;;;;;;;;5061639;28;20416;-78
2022/03/06 12:30:32;;;;;;;15.00;9.40;;;;;;;;;;5057962;28;20402;-78
2022/03/06 12:33:18;;;;;;;14.80;9.43;;;;;;;;;;5056631;28;20405;-77
2022/03/06 12:35:44;;;;;;;10.23;7.50;;;;;;;;;;5059921;28;20398;-78
2022/03/06 12:38:11;;;;;;;13.47;8.33;;;;;;;;;;5057321;28;20460;-76
2022/03/06 12:40:37;;;;;;;12.93;8.40;;;;;;;;;;5055533;28;20862;-77
2022/03/06 12:43:06;;;;;;;10.97;8.30;;;;;;;;;;5054268;28;20424;-77
2022/03/06 12:45:33;;;;;;;20.17;9.13;;;;;;;;;;5055778;28;20406;-77
2022/03/06 12:47:59;;;;;;;11.90;8.27;;;;;;;;;;5055520;28;20464;-77
2022/03/06 12:50:25;;;;;;;13.90;9.10;;;;;;;;;;5055380;28;20410;-77
2022/03/06 12:52:55;;;;;;;14.50;9.40;;;;;;;;;;5056975;28;20394;-77
2022/03/06 12:55:22;;;;;;;23.83;12.83;;;;;;;;;;5059013;28;20401;-78
2022/03/06 12:57:49;;;;;;;14.20;9.23;;;;;;;;;;5059081;28;20430;-77
2022/03/06 13:00:26;;;;;;;39.10;20.07;;;;;;;;;;5055259;28;20445;-77
2022/03/06 13:02:56;;;;;;;14.70;8.50;;;;;;;;;;5056822;28;20392;-78
2022/03/06 13:05:25;;;;;;;25.60;14.40;;;;;;;;;;5057488;28;20474;-78
2022/03/06 13:07:52;;;;;;;25.70;14.20;;;;;;;;;;5059142;28;20461;-76
2022/03/06 13:10:18;;;;;;;13.27;9.50;;;;;;;;;;5066209;28;20432;-77
2022/03/06 13:12:49;;;;;;;12.90;8.30;;;;;;;;;;5062426;28;20416;-77
2022/03/06 13:15:15;;;;;;;15.00;9.80;;;;;;;;;;5061992;28;20402;-77
2022/03/06 13:17:45;;;;;;;13.53;9.47;;;;;;;;;;5060854;28;20405;-77
2022/03/06 13:20:12;;;;;;;13.40;8.03;;;;;;;;;;5055877;28;20477;-77
2022/03/06 13:22:39;;;;;;;14.13;8.87;;;;;;;;;;5055877;28;20402;-78
2022/03/06 13:25:05;;;;;;;14.83;9.80;;;;;;;;;;5057984;28;20402;-77
2022/03/06 13:27:32;;;;;;;12.20;7.90;;;;;;;;;;5054913;28;20410;-77
2022/03/06 13:29:59;;;;;;;14.73;9.63;;;;;;;;;;5055484;28;20409;-77
2022/03/06 13:32:28;;;;;;;13.20;8.83;;;;;;;;;;5056148;28;20414;-77
2022/03/06 13:34:54;;;;;;;17.37;9.10;;;;;;;;;;5055687;28;20488;-77
2022/03/06 13:37:30;;;;;;;15.77;8.80;;;;;;;;;;5055967;28;20425;-78
2022/03/06 13:39:56;;;;;;;12.27;8.03;;;;;;;;;;5088906;22;21003;-77
2022/03/06 13:42:35;;;;;;;15.03;10.40;;;;;;;;;;5049865;28;20413;-77
2022/03/06 13:45:02;;;;;;;13.20;9.30;;;;;;;;;;5034500;28;20402;-78
2022/03/06 13:47:38;;;;;;;13.60;8.90;;;;;;;;;;5035531;28;20472;-77
2022/03/06 13:50:05;;;;;;;16.70;9.53;;;;;;;;;;5035874;28;20422;-77
2022/03/06 13:52:32;;;;;;;14.43;9.13;;;;;;;;;;5035175;28;20846;-78
2022/03/06 13:55:03;;;;;;;18.00;10.17;;;;;;;;;;5035484;28;20433;-77
2022/03/06 13:57:29;;;;;;;12.23;8.80;;;;;;;;;;5035807;28;20398;-76
2022/03/06 13:59:55;;;;;;;14.10;8.97;;;;;;;;;;5034185;28;20481;-77
2022/03/06 14:02:27;;;;;;;13.43;8.60;;;;;;;;;;5037910;28;20410;-78
2022/03/06 14:04:54;;;;;;;11.80;7.60;;;;;;;;;;5036789;28;20407;-78
2022/03/06 14:07:24;;;;;;;15.67;9.07;;;;;;;;;;5037459;28;20410;-78
2022/03/06 14:09:50;;;;;;;13.90;8.90;;;;;;;;;;5037844;28;20442;-78
2022/03/06 14:12:17;;;;;;;13.67;8.20;;;;;;;;;;5038049;28;20406;-78
2022/03/06 14:14:45;;;;;;;15.37;9.30;;;;;;;;;;5037953;28;20433;-78
2022/03/06 14:17:12;;;;;;;13.63;9.03;;;;;;;;;;5038210;28;20894;-78
2022/03/06 14:19:38;;;;;;;12.50;8.97;;;;;;;;;;5038693;28;20422;-78
2022/03/06 14:22:05;;;;;;;14.43;9.50;;;;;;;;;;5035449;28;20419;-78
2022/03/06 14:24:31;;;;;;;12.17;8.10;;;;;;;;;;5033950;28;20409;-77